createdAt,value
2023-03-29T00:03:02.176Z,9.70
2023-03-29T00:06:06.000Z,17.60
2023-03-29T00:09:10.034Z,23.60
2023-03-29T00:12:12.827Z,10.90
2023-03-29T00:15:15.977Z,11.70
2023-03-29T00:18:18.807Z,16.50
2023-03-29T00:21:21.574Z,12.00
2023-03-29T00:24:24.363Z,14.50
2023-03-29T00:27:27.408Z,13.70
2023-03-29T00:30:30.392Z,17.90
2023-03-29T00:33:33.658Z,20.50
2023-03-29T00:36:36.832Z,16.80
2023-03-29T00:39:42.177Z,15.30
2023-03-29T00:42:48.133Z,19.40
2023-03-29T00:45:51.248Z,11.20
2023-03-29T00:48:58.660Z,30.20
2023-03-29T00:52:02.011Z,51.60
2023-03-29T00:55:11.050Z,33.40
2023-03-29T00:58:18.187Z,32.30
2023-03-29T01:01:28.441Z,40.60
2023-03-29T01:04:42.636Z,55.60
2023-03-29T01:07:58.273Z,35.70
2023-03-29T01:11:25.077Z,28.70
2023-03-29T01:14:31.230Z,20.40
2023-03-29T01:17:34.508Z,20.10
2023-03-29T01:20:52.377Z,24.30
2023-03-29T01:23:58.292Z,28.00
2023-03-29T01:27:07.357Z,30.70
2023-03-29T01:30:18.303Z,20.10
2023-03-29T01:33:25.465Z,17.70
2023-03-29T01:36:37.136Z,20.50
2023-03-29T01:39:40.373Z,19.70
2023-03-29T01:43:08.935Z,16.60
2023-03-29T01:46:23.733Z,22.60
2023-03-29T01:49:45.398Z,20.40
2023-03-29T01:52:57.315Z,20.80
2023-03-29T01:56:07.669Z,14.90
2023-03-29T01:59:22.588Z,20.90
2023-03-29T02:02:28.626Z,22.40
2023-03-29T02:05:33.727Z,13.20
2023-03-29T02:08:38.743Z,27.60
2023-03-29T02:11:43.414Z,26.80
2023-03-29T02:14:46.443Z,65.70
2023-03-29T02:17:51.023Z,30.20
2023-03-29T02:20:57.492Z,19.10
2023-03-29T02:24:03.529Z,23.80
2023-03-29T02:27:06.625Z,20.90
2023-03-29T02:30:13.204Z,19.00
2023-03-29T02:33:34.337Z,13.70
2023-03-29T02:36:47.595Z,18.70
2023-03-29T02:39:52.683Z,51.40
2023-03-29T02:42:57.694Z,21.10
2023-03-29T02:46:02.416Z,26.80
2023-03-29T02:49:05.894Z,22.80
2023-03-29T02:52:16.915Z,23.30
2023-03-29T02:55:23.596Z,13.40
2023-03-29T02:58:26.794Z,41.20
2023-03-29T03:01:29.782Z,11.60
2023-03-29T03:04:35.568Z,29.00
2023-03-29T03:07:40.621Z,33.60
2023-03-29T03:10:43.570Z,21.00
2023-03-29T03:13:46.461Z,22.00
2023-03-29T03:16:50.198Z,26.80
2023-03-29T03:19:53.376Z,16.60
2023-03-29T03:22:57.596Z,16.20
2023-03-29T03:26:00.638Z,50.00
2023-03-29T03:29:04.577Z,37.70
2023-03-29T03:32:25.900Z,19.00
2023-03-29T03:36:10.845Z,20.00
2023-03-29T03:39:14.322Z,31.70
2023-03-29T03:42:18.497Z,33.30
2023-03-29T03:45:21.691Z,30.10
2023-03-29T03:48:37.250Z,24.10
2023-03-29T03:51:54.195Z,19.00
2023-03-29T03:54:57.358Z,23.90
2023-03-29T03:58:18.482Z,26.30
2023-03-29T04:01:21.283Z,17.80
2023-03-29T04:04:30.898Z,15.00
2023-03-29T04:07:43.769Z,10.50
2023-03-29T04:11:01.203Z,21.30
2023-03-29T04:14:11.390Z,18.10
2023-03-29T04:17:44.149Z,11.40
2023-03-29T04:21:05.665Z,11.80
2023-03-29T04:24:09.450Z,10.30
2023-03-29T04:27:13.581Z,25.60
2023-03-29T04:30:17.002Z,17.90
2023-03-29T04:33:35.790Z,21.90
2023-03-29T04:36:38.966Z,19.10
2023-03-29T04:39:46.183Z,15.50
2023-03-29T04:42:49.137Z,26.10
2023-03-29T04:45:51.924Z,30.50
2023-03-29T04:49:08.301Z,29.30
2023-03-29T04:52:14.700Z,29.70
2023-03-29T04:55:17.610Z,27.50
2023-03-29T04:58:38.659Z,32.60
2023-03-29T05:01:41.588Z,48.70
2023-03-29T05:04:44.894Z,30.80
2023-03-29T05:07:50.944Z,35.60
2023-03-29T05:10:57.706Z,56.40
2023-03-29T05:14:03.393Z,40.70
2023-03-29T05:17:08.183Z,40.40
2023-03-29T05:20:12.909Z,48.30
2023-03-29T05:23:17.608Z,46.40
2023-03-29T05:26:41.066Z,44.40
2023-03-29T05:29:47.828Z,41.90
2023-03-29T05:33:05.830Z,50.30
2023-03-29T05:36:13.453Z,162.90
2023-03-29T05:39:21.177Z,66.60
2023-03-29T05:42:24.757Z,51.30
2023-03-29T05:45:33.507Z,47.90
2023-03-29T05:48:36.540Z,42.90
2023-03-29T05:51:42.023Z,57.00
2023-03-29T05:54:45.164Z,40.60
2023-03-29T05:57:48.133Z,49.10
2023-03-29T06:00:51.329Z,50.00
2023-03-29T06:04:15.262Z,42.60
2023-03-29T06:07:25.550Z,48.30
2023-03-29T06:11:02.435Z,42.90
2023-03-29T06:14:27.952Z,63.30
2023-03-29T06:17:40.288Z,46.00
2023-03-29T06:20:43.583Z,45.50
2023-03-29T06:23:49.299Z,43.90
2023-03-29T06:26:53.250Z,37.20
2023-03-29T06:29:56.294Z,77.10
2023-03-29T06:33:01.090Z,52.60
2023-03-29T06:36:21.175Z,48.90
2023-03-29T06:39:26.538Z,47.40
2023-03-29T06:42:46.700Z,53.30
2023-03-29T06:46:24.645Z,47.00
2023-03-29T06:49:31.916Z,50.40
2023-03-29T06:52:48.522Z,41.30
2023-03-29T06:55:52.585Z,43.50
2023-03-29T06:59:21.545Z,72.90
2023-03-29T07:02:46.619Z,40.30
2023-03-29T07:05:52.000Z,37.20
2023-03-29T07:08:59.821Z,37.30
2023-03-29T07:12:14.041Z,41.90
2023-03-29T07:15:17.132Z,29.60
2023-03-29T07:18:46.129Z,24.60
2023-03-29T07:21:58.773Z,31.30
2023-03-29T07:25:12.355Z,32.60
2023-03-29T07:28:15.117Z,25.20
2023-03-29T07:31:17.892Z,31.70
2023-03-29T07:34:30.063Z,30.90
2023-03-29T07:37:35.183Z,38.30
2023-03-29T07:40:37.955Z,18.50
2023-03-29T07:44:09.055Z,30.60
2023-03-29T07:47:12.894Z,23.10
2023-03-29T07:50:16.779Z,29.90
2023-03-29T07:53:20.008Z,25.40
2023-03-29T07:56:23.449Z,16.80
2023-03-29T07:59:32.641Z,12.60
2023-03-29T08:02:50.858Z,18.20
2023-03-29T08:05:53.962Z,12.80
2023-03-29T08:08:57.495Z,31.90
2023-03-29T08:12:00.588Z,11.70
2023-03-29T08:15:10.936Z,9.80
2023-03-29T08:18:14.230Z,16.00
2023-03-29T08:21:17.240Z,13.00
2023-03-29T08:24:22.168Z,17.50
2023-03-29T08:27:30.496Z,13.10
2023-03-29T08:30:33.459Z,10.60
2023-03-29T08:33:37.665Z,10.10
2023-03-29T08:37:00.667Z,13.50
2023-03-29T08:40:21.067Z,27.70
2023-03-29T08:43:45.649Z,22.20
2023-03-29T08:47:26.387Z,8.40
2023-03-29T08:50:47.942Z,10.20
2023-03-29T08:53:59.188Z,6.90
2023-03-29T08:57:47.639Z,8.50
2023-03-29T09:01:00.392Z,17.10
2023-03-29T09:04:14.790Z,7.60
2023-03-29T09:07:28.024Z,6.10
2023-03-29T09:10:42.336Z,6.70
2023-03-29T09:14:07.220Z,9.70
2023-03-29T09:17:28.910Z,5.00
2023-03-29T09:21:11.447Z,4.50
2023-03-29T09:24:25.269Z,5.00
2023-03-29T09:27:59.410Z,7.90
2023-03-29T09:31:21.545Z,11.60
2023-03-29T09:34:32.703Z,6.10
2023-03-29T09:37:41.270Z,7.20
2023-03-29T09:40:51.457Z,9.30
2023-03-29T09:44:01.567Z,16.00
2023-03-29T09:47:19.338Z,8.50
2023-03-29T09:50:37.486Z,8.70
2023-03-29T09:53:42.597Z,10.70
2023-03-29T09:56:56.006Z,4.40
2023-03-29T10:00:01.880Z,4.60
2023-03-29T10:03:04.926Z,7.50
2023-03-29T10:06:24.440Z,5.00
2023-03-29T10:09:34.240Z,4.90
2023-03-29T10:12:54.128Z,5.30
2023-03-29T10:16:37.723Z,5.40
2023-03-29T10:19:51.662Z,5.60
2023-03-29T10:22:59.307Z,7.10
2023-03-29T10:26:06.657Z,31.40
2023-03-29T10:29:12.584Z,18.90
2023-03-29T10:32:34.345Z,5.00
2023-03-29T10:35:41.998Z,7.30
2023-03-29T10:38:45.368Z,9.10
2023-03-29T10:41:52.615Z,4.30
2023-03-29T10:44:58.299Z,4.00
2023-03-29T10:48:03.626Z,3.90
2023-03-29T10:51:07.655Z,7.20
2023-03-29T10:54:14.717Z,13.90
2023-03-29T10:57:48.188Z,5.50
2023-03-29T11:00:58.198Z,13.20
2023-03-29T11:04:23.173Z,9.90
2023-03-29T11:07:32.959Z,3.70
2023-03-29T11:10:42.506Z,6.60
2023-03-29T11:14:05.423Z,6.80
2023-03-29T11:17:36.650Z,4.30
2023-03-29T11:21:02.257Z,3.90
2023-03-29T11:24:07.957Z,4.50
2023-03-29T11:27:46.206Z,5.10
2023-03-29T11:31:03.936Z,6.90
2023-03-29T11:34:35.006Z,4.90
2023-03-29T11:38:32.375Z,4.60
2023-03-29T11:41:40.273Z,5.40
2023-03-29T11:44:47.009Z,3.80
2023-03-29T11:50:56.252Z,4.30
2023-03-29T11:53:59.002Z,4.30
2023-03-29T11:57:13.586Z,4.70
2023-03-29T12:00:22.129Z,8.00
2023-03-29T12:03:41.826Z,4.40
2023-03-29T12:07:17.307Z,29.90
2023-03-29T12:10:23.658Z,4.50
2023-03-29T12:13:32.245Z,4.50
2023-03-29T12:16:49.884Z,4.10
2023-03-29T12:20:11.059Z,4.90
2023-03-29T12:23:16.235Z,4.70
2023-03-29T12:26:53.727Z,4.50
2023-03-29T12:30:18.514Z,4.70
2023-03-29T12:33:36.041Z,6.10
2023-03-29T12:37:10.942Z,6.60
2023-03-29T12:40:28.278Z,4.90
2023-03-29T12:43:50.821Z,24.90
2023-03-29T12:47:23.785Z,4.70
2023-03-29T12:50:46.194Z,19.50
2023-03-29T12:53:54.582Z,4.50
2023-03-29T12:57:25.825Z,7.10
2023-03-29T13:00:45.381Z,4.60
2023-03-29T13:03:57.788Z,4.80
2023-03-29T13:07:05.933Z,4.70
2023-03-29T13:10:11.039Z,6.30
2023-03-29T13:13:21.225Z,6.30
2023-03-29T13:16:35.025Z,4.00
2023-03-29T13:19:47.992Z,9.80
2023-03-29T13:23:06.127Z,10.20
2023-03-29T13:26:31.640Z,63.40
2023-03-29T13:30:04.481Z,19.70
2023-03-29T13:33:22.162Z,12.40
2023-03-29T13:36:46.157Z,35.40
2023-03-29T13:45:30.029Z,11.70
2023-03-29T13:48:48.946Z,22.70
2023-03-29T13:51:54.483Z,24.80
2023-03-29T13:55:00.759Z,30.10
2023-03-29T13:58:14.141Z,27.50
2023-03-29T14:01:39.240Z,50.30
2023-03-29T14:04:46.841Z,20.20
2023-03-29T14:07:52.979Z,10.20
2023-03-29T14:10:56.775Z,15.50
2023-03-29T14:14:02.933Z,12.90
2023-03-29T14:17:05.894Z,11.90
2023-03-29T14:20:09.855Z,12.70
2023-03-29T14:23:19.682Z,4.70
2023-03-29T14:26:24.226Z,5.30
2023-03-29T14:29:34.043Z,3.70
2023-03-29T14:32:39.282Z,7.60
2023-03-29T14:35:42.319Z,7.00
2023-03-29T14:39:02.900Z,10.00
2023-03-29T14:42:14.415Z,3.70
2023-03-29T14:45:18.719Z,3.50
2023-03-29T14:48:23.198Z,5.40
2023-03-29T14:51:30.248Z,5.70
2023-03-29T14:54:34.415Z,7.70
2023-03-29T14:57:38.098Z,5.10
2023-03-29T15:00:44.738Z,5.00
2023-03-29T15:03:56.421Z,4.20
2023-03-29T15:06:59.802Z,6.00
2023-03-29T15:10:08.305Z,5.00
2023-03-29T15:13:24.561Z,4.40
2023-03-29T15:16:30.680Z,6.80
2023-03-29T15:19:34.354Z,5.90
2023-03-29T15:22:39.183Z,6.10
2023-03-29T15:25:51.093Z,6.20
2023-03-29T15:29:03.197Z,11.30
2023-03-29T15:32:06.997Z,6.40
2023-03-29T15:35:25.871Z,6.70
2023-03-29T15:38:36.775Z,11.10
2023-03-29T15:41:49.270Z,13.70
2023-03-29T15:44:56.322Z,35.90
2023-03-29T15:48:04.856Z,20.20
2023-03-29T15:51:10.821Z,11.60
2023-03-29T15:54:13.713Z,60.00
2023-03-29T15:57:17.990Z,30.80
2023-03-29T16:00:22.530Z,59.80
2023-03-29T16:03:27.346Z,19.90
2023-03-29T16:06:30.668Z,32.90
2023-03-29T16:09:34.467Z,70.40
2023-03-29T16:12:38.546Z,92.20
2023-03-29T16:15:42.786Z,30.60
2023-03-29T16:18:46.873Z,31.20
2023-03-29T16:21:50.222Z,18.40
2023-03-29T16:24:53.451Z,37.10
2023-03-29T16:27:56.485Z,36.60
2023-03-29T16:30:59.440Z,32.40
2023-03-29T16:34:03.284Z,25.60
2023-03-29T16:37:06.464Z,48.30
2023-03-29T16:40:12.408Z,17.50
2023-03-29T16:43:16.179Z,40.20
2023-03-29T16:50:27.674Z,23.80
2023-03-29T16:53:30.696Z,17.40
2023-03-29T16:56:36.484Z,22.80
2023-03-29T16:59:41.815Z,14.60
2023-03-29T17:02:44.823Z,21.70
2023-03-29T17:05:53.050Z,17.90
2023-03-29T17:08:56.245Z,20.90
2023-03-29T17:11:59.167Z,73.80
2023-03-29T17:15:02.915Z,71.00
2023-03-29T17:18:06.156Z,47.10
2023-03-29T17:21:09.161Z,28.80
2023-03-29T17:24:11.972Z,24.90
2023-03-29T17:27:15.534Z,25.80
2023-03-29T17:30:18.816Z,31.00
2023-03-29T17:33:22.820Z,53.30
2023-03-29T17:36:28.340Z,37.40
2023-03-29T17:39:32.187Z,30.60
2023-03-29T17:42:35.087Z,27.60
2023-03-29T17:45:37.984Z,30.40
2023-03-29T17:48:40.974Z,29.60
2023-03-29T17:51:44.110Z,29.10
2023-03-29T17:54:47.280Z,32.10
2023-03-29T17:57:50.408Z,31.30
2023-03-29T18:00:53.601Z,30.40
2023-03-29T18:03:56.812Z,86.40
2023-03-29T18:07:00.488Z,320.70
2023-03-29T18:10:04.658Z,438.10
2023-03-29T18:13:11.369Z,431.60
2023-03-29T18:16:14.522Z,270.90
2023-03-29T18:19:17.444Z,77.60
2023-03-29T18:22:21.334Z,55.50
2023-03-29T18:25:24.510Z,46.80
2023-03-29T18:28:27.243Z,65.30
2023-03-29T18:31:30.551Z,114.30
2023-03-29T18:34:34.339Z,127.80
2023-03-29T18:37:37.474Z,115.00
2023-03-29T18:40:40.816Z,94.60
2023-03-29T18:43:44.306Z,108.20
2023-03-29T18:46:48.081Z,108.50
2023-03-29T18:49:51.069Z,76.50
2023-03-29T18:52:54.135Z,59.60
2023-03-29T18:55:57.748Z,69.30
2023-03-29T18:59:05.144Z,60.70
2023-03-29T19:02:08.386Z,41.80
2023-03-29T19:05:11.395Z,46.80
2023-03-29T19:08:14.173Z,45.00
2023-03-29T19:11:17.330Z,58.50
2023-03-29T19:14:23.681Z,65.60
2023-03-29T19:17:27.812Z,58.70
2023-03-29T19:20:30.628Z,45.60
2023-03-29T19:23:33.665Z,38.00
2023-03-29T19:26:36.577Z,47.10
2023-03-29T19:29:39.468Z,56.30
2023-03-29T19:32:42.345Z,121.10
2023-03-29T19:35:45.793Z,106.60
2023-03-29T19:38:48.652Z,245.00
2023-03-29T19:41:53.330Z,203.30
2023-03-29T19:44:56.546Z,143.80
2023-03-29T19:48:03.242Z,153.50
2023-03-29T19:51:06.737Z,164.80
2023-03-29T19:54:12.137Z,211.00
2023-03-29T19:57:15.308Z,201.30
2023-03-29T20:00:18.987Z,164.80
2023-03-29T20:03:22.478Z,138.80
2023-03-29T20:06:25.783Z,150.50
2023-03-29T20:09:28.715Z,210.50
2023-03-29T20:12:31.585Z,262.00
2023-03-29T20:15:35.203Z,219.40
2023-03-29T20:18:38.337Z,255.30
2023-03-29T20:21:41.103Z,170.80
2023-03-29T20:24:43.915Z,143.00
2023-03-29T20:27:48.793Z,189.70
2023-03-29T20:30:52.814Z,234.20
2023-03-29T20:33:57.591Z,169.00
2023-03-29T20:37:00.985Z,165.70
2023-03-29T20:40:05.497Z,186.80
2023-03-29T20:43:13.452Z,208.20
2023-03-29T20:46:22.851Z,142.70
2023-03-29T20:49:26.631Z,146.20
2023-03-29T20:52:29.565Z,229.80
2023-03-29T20:55:38.141Z,209.90
2023-03-29T20:58:42.093Z,111.20
2023-03-29T21:01:45.084Z,106.80
2023-03-29T21:04:52.415Z,132.50
2023-03-29T21:07:55.218Z,147.10
2023-03-29T21:10:57.975Z,144.60
2023-03-29T21:14:01.140Z,136.60
2023-03-29T21:17:03.898Z,98.90
2023-03-29T21:20:09.911Z,81.10
2023-03-29T21:23:13.302Z,75.50
2023-03-29T21:26:16.063Z,99.30
2023-03-29T21:29:18.920Z,149.70
2023-03-29T21:32:21.658Z,167.40
2023-03-29T21:35:25.063Z,176.70
2023-03-29T21:38:28.643Z,142.00
2023-03-29T21:41:31.610Z,176.30
2023-03-29T21:44:34.587Z,177.00
2023-03-29T21:47:37.641Z,108.00
2023-03-29T21:50:40.575Z,71.40
2023-03-29T21:53:43.416Z,79.80
2023-03-29T21:56:47.859Z,81.00
2023-03-29T21:59:50.830Z,111.90
2023-03-29T22:02:53.575Z,158.30
2023-03-29T22:06:02.546Z,115.60
2023-03-29T22:09:06.097Z,81.00
2023-03-29T22:12:10.039Z,88.90
2023-03-29T22:15:12.824Z,134.00
2023-03-29T22:18:15.563Z,115.60
2023-03-29T22:21:23.414Z,112.80
2023-03-29T22:24:26.208Z,111.50
2023-03-29T22:27:29.093Z,108.20
2023-03-29T22:30:31.847Z,144.70
2023-03-29T22:33:36.020Z,108.80
2023-03-29T22:36:38.779Z,86.10
2023-03-29T22:39:41.556Z,78.20
2023-03-29T22:42:49.872Z,64.90
2023-03-29T22:45:52.597Z,63.20
2023-03-29T22:48:55.723Z,69.60
2023-03-29T22:52:01.537Z,62.30
2023-03-29T22:55:05.042Z,60.50
2023-03-29T22:58:32.936Z,64.80
2023-03-29T23:01:35.884Z,56.20
2023-03-29T23:04:38.948Z,57.80
2023-03-29T23:07:41.906Z,66.40
2023-03-29T23:10:47.118Z,55.30
2023-03-29T23:13:52.556Z,51.00
2023-03-29T23:16:55.427Z,51.00
2023-03-29T23:19:58.953Z,62.20
2023-03-29T23:23:02.552Z,51.00
2023-03-29T23:26:08.431Z,48.30
2023-03-29T23:29:11.175Z,50.30
2023-03-29T23:32:15.709Z,44.20
2023-03-29T23:35:19.323Z,38.80
2023-03-29T23:38:22.778Z,45.30
2023-03-29T23:41:28.335Z,44.60
2023-03-29T23:44:31.193Z,100.80
2023-03-29T23:47:34.570Z,149.90
2023-03-29T23:50:37.332Z,55.20
2023-03-29T23:53:40.296Z,94.90
2023-03-29T23:56:43.799Z,125.60
2023-03-29T23:59:46.683Z,47.50
